Startpagina
METAR-TAF:

METAR-TAF

Vliegvelden :

Talkeetna, Alaska, Verenigde Staten

breedte: 62-19-14N, lengte: 150-05-37W, hoogte: 109 m

Actueel weer

Dit bericht is 14 minuten geleden gemaakt, om 17:42 UTC
Wind 6 kt uit het noorden
Temperatuur 3°C
Vochtigheid 35%
Druk 1019 hPa
Zicht: 16.1 km
Onbewolkt

METAR: PATK 251742Z 36006KT 10SM CLR 03/M11 A3010

Tijdstip: 09:56 (17:56 UTC)

Verwachting

Dit bericht is 26 minuten geleden gemaakt, om 17:30 UTC
Verwachting geldig van 25 om 18 UTC tot 26 om 18 UTC
Wind 7 kt uit het noorden
Zicht: 10 km
Gebroken wolken op 20000 ft

TAF: PATK 251730Z 2518/2618 36007KT P6SM BKN200

Waarnemingen en weersverwachtingen van meer dan 4000 vliegvelden (METAR en TAF).

De beschikbare stations zijn de gele en rode punten op de kaart.

Ga met uw muis naar het station om de naam te zien.

Klik dan om waarnemingen en weersverwachtingen te zien.

kaart wijzigen: klik op de groene knoppen met een zwart kruis om in te zoomen, op de groene knop met een streepje om uit te zoomen of op de groene pijlen voor aangrenzende kaarten.


METAR-TAF: